Terminal Aerodrome Forecast
Issued by NWS Shreveport, LA

Home | Current Version | Previous Version | Text Only | Print | Product List | Glossary On
Versions: 1 2 3 4 5 6 7 8 9 10 11 12 13 14 15 16 17 18 19 20 21 22 23 24
000
FTUS44 KSHV 271500 AAB
TAFGGG
TAF AMD
KGGG 271500Z 2715/2812 09015KT P6SM VCSH FEW013 SCT040 BKN110
      TEMPO 2715/2718 BKN013 BKN040
     FM271900 09012G18KT P6SM VCTS BKN013 OVC040CB
     FM280200 03007KT 4SM BR OVC007
     FM280900 01006KT 2SM BR OVC004=

USA.gov is the U.S. government's official web portal to all federal, state and local government web resources and services.